Data for 10/11/2008

Time Sea-Level Adjusted Pressure Absolute Pressure Temperature Relative Humidity Dew Point   
(mb) (inHg) (mb) (inHg) (C) (F) (%) (C) (F)
00:05 1021 30.15 850 25.1 -3.2 26.2 94 -4.1 24.5
00:10 1021 30.15 850 25.1 -3.3 26.1 94 -4.1 24.7
00:15 1021 30.15 850 25.1 -3.3 26.1 94 -4.1 24.7
00:20 1021 30.15 850 25.1 -3.3 26 94 -4.1 24.6
00:25 1021 30.15 850 25.1 -3.3 26 95 -4.1 24.7
00:30 1021 30.15 850 25.1 -3.3 26 95 -4 24.8
00:35 1021 30.15 850 25.1 -3.3 26 95 -4 24.7
00:40 1021 30.15 850 25.1 -3.3 26 95 -4 24.9
00:45 1021 30.15 850 25.1 -3.3 26 96 -3.9 25
00:50 1021 30.15 850 25.1 -3.3 26 95 -4 24.8
00:55 1021 30.15 850 25.1 -3.3 26 95 -4 24.8
01:00 1020 30.12 850 25.1 -3.3 26 95 -4 24.8
01:05 1020 30.12 850 25.1 -3.3 26 95 -4 24.7
01:10 1021 30.15 850 25.1 -3.3 26 95 -4.1 24.7
01:15 1021 30.15 850 25.1 -3.3 26 96 -3.9 25
01:20 1021 30.15 850 25.1 -3.3 26 96 -4 24.9
01:25 1021 30.15 850 25.1 -3.4 25.9 96 -4 24.8
01:30 1021 30.15 850 25.1 -3.4 26 96 -3.9 25
01:35 1021 30.15 850 25.1 -3.4 25.9 96 -4 24.8
01:40 1020 30.12 850 25.1 -3.4 25.9 96 -4 24.8
01:45 1020 30.12 850 25.1 -3.4 25.9 95 -4.1 24.6
01:50 1020 30.12 849 25.07 -3.4 25.9 95 -4.1 24.7
01:55 1020 30.12 849 25.07 -3.4 25.8 95 -4.1 24.6
02:00 1020 30.12 849 25.07 -3.4 25.9 95 -4.1 24.6
02:05 1020 30.12 849 25.07 -3.4 25.9 94 -4.2 24.4
02:10 1020 30.12 849 25.07 -3.4 25.9 95 -4.1 24.6
02:15 1020 30.12 849 25.07 -3.4 25.8 94 -4.2 24.4
02:20 1020 30.12 849 25.07 -3.4 25.9 94 -4.2 24.4
02:25 1020 30.12 849 25.07 -3.4 25.9 93 -4.5 24
02:30 1020 30.12 849 25.07 -3.4 26 93 -4.3 24.2
02:35 1020 30.12 849 25.07 -3.4 25.9 93 -4.3 24.2
02:40 1020 30.12 849 25.07 -3.4 25.9 93 -4.4 24.1
02:45 1019 30.09 849 25.07 -3.4 26 92 -4.5 23.9
02:50 1019 30.09 849 25.07 -3.3 26 91 -4.5 23.9
02:55 1019 30.09 849 25.07 -3.3 26.1 89 -4.8 23.4
03:00 1019 30.09 849 25.07 -3.2 26.3 89 -4.7 23.5
03:05 1019 30.09 849 25.07 -3.2 26.3 88 -4.8 23.3
03:10 1019 30.09 849 25.07 -3.1 26.4 88 -4.8 23.4
03:15 1019 30.09 849 25.07 -3.1 26.4 89 -4.8 23.4
03:20 1019 30.09 849 25.07 -3.1 26.4 89 -4.8 23.4
03:25 1019 30.09 849 25.07 -3.1 26.4 88 -4.9 23.2
03:30 1019 30.09 849 25.07 -3.1 26.4 88 -4.8 23.4
03:35 1019 30.09 849 25.07 -3.1 26.4 89 -4.7 23.6
03:40 1019 30.09 848 25.04 -3.2 26.3 89 -4.7 23.6
03:45 1019 30.09 848 25.04 -3.2 26.2 90 -4.7 23.6
03:50 1019 30.09 848 25.04 -3.2 26.3 88 -4.8 23.3
03:55 1019 30.09 848 25.04 -3.1 26.3 88 -4.8 23.3
04:00 1019 30.09 848 25.04 -3.1 26.3 89 -4.7 23.5
04:05 1019 30.09 848 25.04 -3.2 26.3 90 -4.7 23.6
04:10 1019 30.09 848 25.04 -3.2 26.2 90 -4.6 23.7
04:15 1019 30.09 848 25.04 -3.3 26.1 90 -4.6 23.7
04:20 1019 30.09 848 25.04 -3.3 26.1 90 -4.7 23.5
04:25 1019 30.09 848 25.04 -3.3 26.1 92 -4.4 24
04:30 1019 30.09 848 25.04 -3.3 26 91 -4.5 23.8
04:35 1019 30.09 848 25.04 -3.3 26 91 -4.5 23.9
04:40 1019 30.09 848 25.04 -3.3 26 91 -4.6 23.8
04:45 1019 30.09 848 25.04 -3.3 26 92 -4.5 23.9
04:50 1019 30.09 848 25.04 -3.4 26 91 -4.6 23.7
04:55 1019 30.09 848 25.04 -3.3 26.1 92 -4.5 23.9
05:00 1019 30.09 848 25.04 -3.3 26.1 92 -4.5 24
05:05 1019 30.09 848 25.04 -3.3 26.1 90 -4.6 23.6
05:10 1019 30.09 848 25.04 -3.1 26.4 87 -5 23
05:15 1019 30.09 848 25.04 -3 26.5 87 -5 23
05:20 1019 30.09 848 25.04 -3 26.6 86 -5 22.9
05:25 1019 30.09 848 25.04 -3 26.7 86 -5 23.1
05:30 1019 30.09 848 25.04 -3 26.5 87 -4.9 23.2
05:35 1019 30.09 848 25.04 -3.1 26.4 88 -4.8 23.4
05:40 1019 30.09 848 25.04 -3.1 26.4 89 -4.7 23.5
05:45 1019 30.09 848 25.04 -3.2 26.3 89 -4.8 23.4
05:50 1019 30.09 848 25.04 -3.2 26.3 89 -4.8 23.4
05:55 1019 30.09 848 25.04 -3.1 26.4 88 -4.9 23.2
06:00 1019 30.09 848 25.04 -3.1 26.5 87 -4.9 23.2
06:05 1019 30.09 848 25.04 -3.1 26.5 88 -4.7 23.5
06:10 1019 30.09 848 25.04 -3.1 26.5 89 -4.6 23.7
06:15 1019 30.09 848 25.04 -3.1 26.4 89 -4.7 23.5
06:20 1019 30.09 848 25.04 -3.1 26.4 89 -4.7 23.6
06:25 1019 30.09 848 25.04 -3.1 26.4 87 -4.9 23.1
06:30 1019 30.09 848 25.04 -3 26.6 88 -4.8 23.3
06:35 1019 30.09 848 25.04 -3 26.6 87 -4.9 23.2
06:40 1019 30.09 848 25.04 -2.9 26.7 86 -4.9 23.1
06:45 1019 30.09 848 25.04 -2.9 26.8 86 -4.9 23.2
06:50 1019 30.09 848 25.04 -2.9 26.7 87 -4.9 23.2
06:55 1019 30.09 848 25.04 -2.9 26.7 87 -4.9 23.2
07:00 1019 30.09 848 25.04 -3 26.7 87 -4.8 23.3
07:05 1019 30.09 848 25.04 -3 26.7 86 -5 23
07:10 1019 30.09 848 25.04 -2.9 26.7 86 -5 23
07:15 1019 30.09 848 25.04 -3 26.6 86 -5 22.9
07:20 1019 30.09 848 25.04 -3 26.7 85 -5.1 22.8
07:25 1019 30.09 848 25.04 -3 26.6 84 -5.3 22.5
07:30 1019 30.09 848 25.04 -3 26.7 85 -5.1 22.8
07:35 1018 30.06 848 25.04 -3 26.6 87 -4.9 23.3
07:40 1019 30.09 848 25.04 -3.1 26.5 88 -4.8 23.4
07:45 1019 30.09 848 25.04 -3.1 26.4 88 -4.9 23.2
07:50 1019 30.09 848 25.04 -3.1 26.4 88 -4.8 23.3
07:55 1018 30.06 848 25.04 -3.1 26.4 88 -4.8 23.3
08:00 1018 30.06 848 25.04 -3.1 26.4 88 -4.9 23.3
08:05 1018 30.06 848 25.04 -3.1 26.5 88 -4.8 23.3
08:10 1019 30.09 848 25.04 -3.1 26.5 88 -4.8 23.3
08:15 1019 30.09 848 25.04 -3 26.5 88 -4.7 23.5
08:20 1019 30.09 848 25.04 -3 26.6 88 -4.7 23.6
08:25 1019 30.09 848 25.04 -3 26.7 87 -4.8 23.4
08:30 1019 30.09 848 25.04 -2.9 26.7 89 -4.5 23.9
08:35 1019 30.09 848 25.04 -3 26.6 90 -4.4 24
08:40 1019 30.09 848 25.04 -3.1 26.5 90 -4.5 23.9
08:45 1019 30.09 848 25.04 -3.1 26.4 90 -4.5 24
08:50 1019 30.09 848 25.04 -3.1 26.4 90 -4.5 23.8
08:55 1019 30.09 848 25.04 -3.1 26.4 90 -4.5 24
09:00 1019 30.09 848 25.04 -3.1 26.5 89 -4.6 23.7
09:05 1019 30.09 848 25.04 -3 26.6 90 -4.5 24
09:10 1019 30.09 848 25.04 -3 26.6 90 -4.4 24
09:15 1019 30.09 848 25.04 -2.9 26.7 87 -4.8 23.4
09:20 1019 30.09 848 25.04 -2.8 26.9 86 -4.9 23.2
09:25 1019 30.09 848 25.04 -2.7 27.2 85 -4.8 23.4
09:30 1019 30.09 848 25.04 -2.5 27.5 83 -5 23
09:35 1019 30.09 848 25.04 -2.5 27.6 84 -4.9 23.2
09:40 1019 30.09 848 25.04 -2.4 27.7 83 -4.9 23.2
09:45 1019 30.09 848 25.04 -2.3 27.8 81 -5.1 22.8
09:50 1019 30.09 848 25.04 -2.3 27.8 83 -4.8 23.3
09:55 1018 30.06 848 25.04 -2.3 27.8 82 -4.9 23.2
10:00 1018 30.06 848 25.04 -2.3 27.8 83 -4.9 23.2
10:05 1018 30.06 848 25.04 -2.3 27.9 83 -4.8 23.4
10:10 1018 30.06 848 25.04 -2.3 27.8 85 -4.6 23.8
10:15 1018 30.06 848 25.04 -2.4 27.7 85 -4.6 23.8
10:20 1018 30.06 848 25.04 -2.4 27.7 85 -4.6 23.7
10:25 1018 30.06 848 25.04 -2.4 27.6 86 -4.5 23.9
10:30 1018 30.06 847 25.01 -2.4 27.6 84 -4.7 23.5
10:35 1018 30.06 847 25.01 -2.4 27.7 83 -4.8 23.3
10:40 1018 30.06 847 25.01 -2.2 28 83 -4.8 23.4
10:45 1018 30.06 848 25.04 -2.2 28.1 83 -4.7 23.6
10:50 1018 30.06 848 25.04 -2 28.4 82 -4.6 23.7
10:55 1018 30.06 848 25.04 -2 28.4 80 -4.9 23.1
11:00 1018 30.06 848 25.04 -2 28.3 80 -5.1 22.8
11:05 1018 30.06 848 25.04 -2 28.4 81 -4.8 23.3
11:10 1018 30.06 848 25.04 -1.9 28.6 81 -4.8 23.3
11:15 1018 30.06 847 25.01 -1.8 28.7 79 -5 23
11:20 1018 30.06 847 25.01 -1.6 29.1 79 -4.8 23.4
11:25 1018 30.06 847 25.01 -1.6 29.2 77 -5.1 22.8
11:30 1018 30.06 847 25.01 -1.5 29.2 76 -5.3 22.5
11:35 1018 30.06 847 25.01 -1.4 29.4 77 -5 22.9
11:40 1018 30.06 847 25.01 -1.5 29.3 78 -4.9 23.2
11:45 1018 30.06 847 25.01 -1.3 29.7 77 -4.9 23.2
11:50 1018 30.06 847 25.01 -1.3 29.6 76 -5 23.1
11:55 1018 30.06 847 25.01 -1.3 29.6 77 -4.8 23.3
12:00 1018 30.06 847 25.01 -1.4 29.4 77 -5 23
12:05 1018 30.06 847 25.01 -1.5 29.3 78 -4.8 23.3
12:10 1018 30.06 847 25.01 -1.5 29.3 78 -4.8 23.3
12:15 1018 30.06 847 25.01 -1.4 29.4 78 -4.8 23.3
12:20 1018 30.06 847 25.01 -1.4 29.5 78 -4.7 23.5
12:25 1018 30.06 847 25.01 -1.2 29.8 77 -4.8 23.4
12:30 1018 30.06 847 25.01 -1.3 29.6 76 -4.9 23.1
12:35 1017 30.03 847 25.01 -1.2 29.8 75 -5 22.9
12:40 1017 30.03 847 25.01 -1.2 29.9 73 -5.3 22.4
12:45 1017 30.03 847 25.01 -1.1 29.9 72 -5.6 22
12:50 1017 30.03 846 24.98 -1.1 30 71 -5.7 21.7
12:55 1017 30.03 846 24.98 -1.2 29.9 74 -5.2 22.6
13:00 1017 30.03 846 24.98 -1.2 29.9 74 -5.3 22.5
13:05 1017 30.03 846 24.98 -1.2 29.8 74 -5.3 22.5
13:10 1017 30.03 846 24.98 -1.3 29.7 72 -5.6 21.9
13:15 1017 30.03 846 24.98 -1.3 29.7 73 -5.6 22
13:20 1017 30.03 846 24.98 -1.3 29.6 73 -5.5 22.1
13:25 1017 30.03 846 24.98 -1.3 29.7 74 -5.3 22.4
13:30 1017 30.03 846 24.98 -1.4 29.5 75 -5.2 22.6
13:35 1017 30.03 846 24.98 -1.4 29.5 75 -5.3 22.4
13:40 1017 30.03 846 24.98 -1.4 29.5 74 -5.4 22.3
13:45 1017 30.03 846 24.98 -1.3 29.6 74 -5.4 22.2
13:50 1017 30.03 846 24.98 -1.4 29.5 72 -5.7 21.7
13:55 1017 30.03 846 24.98 -1.3 29.6 71 -5.9 21.3
14:00 1017 30.03 846 24.98 -1.2 29.8 71 -5.8 21.6
14:05 1017 30.03 846 24.98 -1.3 29.7 71 -5.8 21.5
14:10 1017 30.03 846 24.98 -1.3 29.7 72 -5.7 21.7
14:15 1017 30.03 846 24.98 -1.3 29.7 71 -5.9 21.3
14:20 1017 30.03 846 24.98 -1.2 29.9 69 -6.1 21
14:25 1017 30.03 846 24.98 -1.3 29.7 71 -5.9 21.3
14:30 1017 30.03 846 24.98 -1.3 29.7 72 -5.7 21.7
14:35 1017 30.03 846 24.98 -1.3 29.6 73 -5.5 22.1
14:40 1017 30.03 846 24.98 -1.5 29.2 75 -5.4 22.3
14:45 1017 30.03 846 24.98 -1.7 29 77 -5.2 22.6
14:50 1017 30.03 846 24.98 -1.8 28.8 77 -5.2 22.6
14:55 1017 30.03 846 24.98 -1.9 28.6 78 -5.2 22.6
15:00 1017 30.03 846 24.98 -2 28.4 82 -4.6 23.7
15:05 1017 30.03 846 24.98 -2.2 28 88 -4 24.7
15:10 1017 30.03 846 24.98 -2.6 27.2 92 -3.7 25.3
15:15 1017 30.03 846 24.98 -2.8 27 92 -3.9 25
15:20 1017 30.03 846 24.98 -2.7 27.1 91 -3.9 24.9
15:25 1017 30.03 846 24.98 -2.6 27.3 90 -4.1 24.7
15:30 1017 30.03 846 24.98 -2.4 27.6 88 -4.2 24.4
15:35 1017 30.03 846 24.98 -2.3 27.8 84 -4.7 23.5
15:40 1017 30.03 846 24.98 -2.1 28.1 83 -4.7 23.5
15:45 1017 30.03 846 24.98 -2.1 28.2 82 -4.7 23.5
15:50 1017 30.03 846 24.98 -2 28.3 82 -4.7 23.6
15:55 1017 30.03 846 24.98 -2 28.4 81 -4.8 23.4
16:00 1017 30.03 846 24.98 -2 28.4 80 -5 23
16:05 1017 30.03 846 24.98 -1.9 28.5 78 -5.2 22.6
16:10 1017 30.03 846 24.98 -1.9 28.5 80 -5 23
16:15 1017 30.03 846 24.98 -1.9 28.5 79 -5 22.9
16:20 1017 30.03 846 24.98 -2.1 28.3 83 -4.6 23.7
16:25 1017 30.03 846 24.98 -2.1 28.2 82 -4.9 23.2
16:30 1017 30.03 846 24.98 -2.2 28 83 -4.7 23.6
16:35 1017 30.03 846 24.98 -2.3 27.8 85 -4.6 23.7
16:40 1017 30.03 846 24.98 -2.4 27.6 87 -4.3 24.3
16:45 1017 30.03 846 24.98 -2.5 27.6 87 -4.3 24.2
16:50 1017 30.03 846 24.98 -2.5 27.4 87 -4.4 24.1
16:55 1017 30.03 846 24.98 -2.6 27.4 87 -4.4 24.1
17:00 1017 30.03 847 25.01 -2.5 27.6 85 -4.6 23.7
17:05 1017 30.03 846 24.98 -2.3 27.8 83 -4.8 23.3
17:10 1017 30.03 846 24.98 -2.2 28.1 82 -4.8 23.3
17:15 1017 30.03 846 24.98 -2.1 28.2 80 -5.1 22.8
17:20 1017 30.03 846 24.98 -2 28.3 78 -5.3 22.4
17:25 1017 30.03 846 24.98 -1.9 28.5 77 -5.5 22.2
17:30 1017 30.03 846 24.98 -1.8 28.7 75 -5.7 21.7
17:35 1017 30.03 846 24.98 -1.7 28.9 74 -5.9 21.5
17:40 1017 30.03 846 24.98 -1.7 28.9 74 -5.8 21.5
17:45 1017 30.03 846 24.98 -1.8 28.8 73 -5.9 21.3
17:50 1017 30.03 846 24.98 -1.8 28.8 72 -6.1 21.1
17:55 1017 30.03 846 24.98 -1.7 29 71 -6.3 20.6
18:00 1017 30.03 846 24.98 -1.7 28.9 73 -6 21.2
18:05 1017 30.03 846 24.98 -1.8 28.8 73 -6 21.2
18:10 1017 30.03 847 25.01 -1.8 28.8 74 -5.8 21.5
18:15 1018 30.06 847 25.01 -1.8 28.7 74 -5.8 21.5
18:20 1018 30.06 847 25.01 -1.9 28.7 74 -6 21.2
18:25 1018 30.06 847 25.01 -2 28.5 77 -5.5 22.1
18:30 1018 30.06 847 25.01 -2.2 28.1 80 -5.2 22.7
18:35 1018 30.06 847 25.01 -2.5 27.6 85 -4.6 23.7
18:40 1018 30.06 847 25.01 -2.7 27.1 87 -4.5 23.9
18:45 1018 30.06 847 25.01 -2.9 26.8 89 -4.4 24.1
18:50 1018 30.06 847 25.01 -3 26.7 91 -4.3 24.3
18:55 1018 30.06 847 25.01 -3.1 26.5 92 -4.2 24.5
19:00 1018 30.06 847 25.01 -3.1 26.3 93 -4.1 24.6
19:05 1018 30.06 847 25.01 -3.2 26.2 92 -4.3 24.3
19:10 1018 30.06 847 25.01 -3.2 26.3 92 -4.3 24.2
19:15 1018 30.06 847 25.01 -3.2 26.3 92 -4.3 24.3
19:20 1018 30.06 847 25.01 -3.2 26.3 91 -4.4 24.1
19:25 1018 30.06 847 25.01 -3.1 26.4 90 -4.5 23.9
19:30 1018 30.06 847 25.01 -3.1 26.4 91 -4.4 24.1
19:35 1018 30.06 847 25.01 -3.1 26.4 91 -4.4 24.1
19:40 1018 30.06 847 25.01 -3 26.5 89 -4.6 23.7
19:45 1018 30.06 847 25.01 -3 26.6 89 -4.6 23.7
19:50 1018 30.06 847 25.01 -2.9 26.8 85 -5 22.9
19:55 1018 30.06 847 25.01 -2.7 27.1 85 -4.9 23.1
20:00 1018 30.06 847 25.01 -2.6 27.3 81 -5.5 22.2
20:05 1018 30.06 847 25.01 -2.4 27.7 79 -5.6 21.9
20:10 1018 30.06 847 25.01 -2.3 27.9 79 -5.5 22.2
20:15 1018 30.06 847 25.01 -2.2 28 77 -5.8 21.6
20:20 1018 30.06 847 25.01 -2.1 28.2 76 -5.8 21.5
20:25 1018 30.06 847 25.01 -2.1 28.2 75 -5.9 21.4
20:30 1018 30.06 847 25.01 -2.1 28.2 75 -5.9 21.3
20:35 1018 30.06 847 25.01 -2.1 28.2 77 -5.7 21.8
20:40 1018 30.06 847 25.01 -2.2 28 79 -5.4 22.3
20:45 1018 30.06 847 25.01 -2.4 27.7 80 -5.3 22.4
20:50 1018 30.06 847 25.01 -2.5 27.5 83 -5.1 22.9
20:55 1018 30.06 847 25.01 -2.7 27.2 85 -4.8 23.3
21:00 1018 30.06 847 25.01 -2.8 27 85 -4.9 23.2
21:05 1018 30.06 847 25.01 -2.8 26.9 87 -4.7 23.5
21:10 1018 30.06 847 25.01 -2.9 26.7 88 -4.7 23.6
21:15 1018 30.06 847 25.01 -3 26.6 88 -4.7 23.6
21:20 1018 30.06 847 25.01 -3 26.6 88 -4.8 23.4
21:25 1018 30.06 847 25.01 -2.9 26.7 86 -4.9 23.2
21:30 1018 30.06 847 25.01 -2.9 26.8 84 -5.2 22.7
21:35 1018 30.06 847 25.01 -2.9 26.8 84 -5.2 22.6
21:40 1018 30.06 847 25.01 -2.8 26.9 82 -5.4 22.3
21:45 1018 30.06 847 25.01 -2.7 27.1 81 -5.6 21.9
21:50 1018 30.06 847 25.01 -2.6 27.3 78 -5.9 21.4
21:55 1018 30.06 847 25.01 -2.5 27.5 77 -6 21.1
22:00 1018 30.06 847 25.01 -2.4 27.7 76 -6.1 21
22:05 1018 30.06 847 25.01 -2.4 27.7 76 -6 21.2
22:10 1018 30.06 847 25.01 -2.4 27.6 77 -6 21.3
22:15 1018 30.06 847 25.01 -2.4 27.6 76 -6 21.1
22:20 1018 30.06 847 25.01 -2.5 27.5 77 -6 21.2
22:25 1018 30.06 847 25.01 -2.5 27.5 77 -6 21.2
22:30 1018 30.06 847 25.01 -2.4 27.6 76 -6.2 20.9
22:35 1018 30.06 847 25.01 -2.4 27.6 76 -6.2 20.9
22:40 1018 30.06 847 25.01 -2.4 27.6 76 -6.2 20.9
22:45 1017 30.03 847 25.01 -2.5 27.5 76 -6.1 20.9
22:50 1018 30.06 847 25.01 -2.5 27.5 76 -6.2 20.8
22:55 1018 30.06 847 25.01 -2.5 27.5 77 -6 21.3
23:00 1018 30.06 847 25.01 -2.6 27.4 77 -6 21.2
23:05 1017 30.03 847 25.01 -2.6 27.4 77 -6.1 21.1
23:10 1018 30.06 847 25.01 -2.6 27.4 78 -5.9 21.3
23:15 1017 30.03 847 25.01 -2.6 27.4 77 -6.1 21
23:20 1018 30.06 847 25.01 -2.5 27.5 77 -6 21.1
23:25 1018 30.06 847 25.01 -2.5 27.5 76 -6.1 21
23:30 1017 30.03 847 25.01 -2.5 27.5 77 -6 21.2
23:35 1017 30.03 847 25.01 -2.4 27.7 74 -6.4 20.5
23:40 1017 30.03 847 25.01 -2.4 27.7 74 -6.4 20.5
23:45 1017 30.03 847 25.01 -2.4 27.7 74 -6.4 20.5
23:50 1017 30.03 847 25.01 -2.3 27.8 73 -6.5 20.3
23:55 1017 30.03 847 25.01 -2.3 27.8 73 -6.5 20.3
24:00 1017 30.03 847 25.01 -2.4 27.7 74 -6.4 20.4